NCAR-RAP Real-Time Weather Data

Output produced by METARs form (10 April 2020  07:17 UTC)
found at http://weather.rap.ucar.edu/surface/
 
KMFR 100653Z AUTO VRB04KT 10SM CLR 14/02 A3000 RMK AO2 SLP153 T01390017
KMFR 100553Z AUTO 15004KT 10SM CLR 15/02 A2999 RMK AO2 SLP150 T01500022 10278 20144 51021
KMFR 100453Z AUTO 00000KT 10SM CLR 18/01 A2999 RMK AO2 SLP151 T01780011
KMFR 100353Z AUTO 32005KT 10SM CLR 20/02 A2996 RMK AO2 SLP141 T02000017
KMFR 100253Z 34005KT 10SM CLR 22/01 A2992 RMK AO2 SLP129 T02170011 53013
KMFR 100153Z 34008KT 10SM CLR 25/M01 A2990 RMK AO2 SLP119 T02501006
KMFR 100053Z 34009KT 10SM CLR 27/M01 A2988 RMK AO2 SLP114 T02721011
KMFR 092353Z 31008KT 10SM CLR 27/07 A2988 RMK AO2 SLP113 T02720067 10272 20156 56026
KMFR 092253Z 30007KT 10SM CLR 27/04 A2990 RMK AO2 SLP117 T02720044
KMFR 092153Z VRB04KT 10SM CLR 26/01 A2993 RMK AO2 SLP129 T02560006
KMFR 092053Z 00000KT 10SM CLR 23/03 A2996 RMK AO2 SLP140 T02330028 58025
KMFR 091953Z VRB03KT 10SM CLR 21/05 A2999 RMK AO2 SLP150 T02110050
KMFR 091853Z 00000KT 10SM CLR 18/07 A3002 RMK AO2 SLP160 T01830067
KMFR 091753Z 00000KT 10SM CLR 16/06 A3004 RMK AO2 SLP168 T01560061 10156 20050 58008
KMFR 091653Z 00000KT 10SM CLR 12/05 A3005 RMK AO2 SLP172 T01220050
KMFR 091553Z 00000KT 10SM CLR 09/04 A3006 RMK AO2 SLP176 T00940044
KMFR 091453Z 00000KT 10SM CLR 08/04 A3006 RMK AO2 SLP177 T00780039 53008
KMFR 091353Z 00000KT 10SM CLR 06/03 A3005 RMK AO2 SLP172 T00610028
KMFR 091253Z 00000KT 10SM CLR 06/03 A3004 RMK AO2 SLP170 T00610028
KMFR 091153Z AUTO 00000KT 10SM CLR 07/03 A3004 RMK AO2 SLP167 T00670033 10167 20067 58003
KMFR 091053Z AUTO 00000KT 10SM CLR 08/04 A3004 RMK AO2 SLP168 T00780039